Terminal Aerodrome Forecast
Issued by NWS Upton, NY

Home | Current Version | Previous Version | Text Only | Print | Product List | Glossary On
Versions: 1 2 3 4 5 6 7 8 9 10 11 12 13 14 15 16 17 18 19 20 21 22 23 24 25 26 27 28 29 30 31 32 33 34 35 36
196
FTUS41 KOKX 220253 AAA
TAFEWR
TAF AMD
KEWR 220253Z 2203/2306 34012G18KT P6SM VCSH SCT025 BKN035
      TEMPO 2203/2206 BKN025
     FM220700 36008KT P6SM VCSH BKN040
     FM221500 02010KT P6SM VCSH SCT015 BKN030
     FM221800 02010G16KT 3SM -RA OVC015
     FM222100 02010G16KT 3SM -RA OVC007
     FM230000 02008KT 6SM -FZDZ OVC007=

USA.gov is the U.S. government's official web portal to all federal, state and local government web resources and services.